Bienvenue à Ascain au Pied de la montagne de La Rhune




Visitez nos autres sites:

Radar Aviation Bordeaux

La Station sur le réseau APRS



Pas de vigilance météorologique particulière.    Il n'y a aucun avertissement

Rapports METAR proximité

   
LESO - San Sebastian/Fu, Spain
Distance: O 13 km
Mise à jour: 21-07-2017 16:30
Nuageux  
Nuageux  
   Vent: NNO 7.4 km/h
Vent: NNO 7.4 km/h
Température: 21°C
Point de rosée: 14°C
Humidité: 64%
Baromètre: 1014 hPa
Nuages: Nuageux
visibilité: Plus 10 km
Détails des nuages: Partiellement nuageux 3000 ft,
Nuageux 4500 ft
LESO 211430Z 33004KT 280V030 9999 SCT030 OVC045 21/14 Q1014
LFBZ - Biarritz/Anglet, France
Distance: NE 17 km
Mise à jour: 21-07-2017 16:30
Nuageux  
Nuageux  
   Vent: NO 9.3 km/h
Vent: NO 9.3 km/h
Température: 20°C
Point de rosée: 14°C
Humidité: 69%
Baromètre: 1014 hPa
Nuages: Nuageux
visibilité: Plus 10 km
Détails des nuages: Nuageux 2700 ft
LFBZ 211430Z AUTO 32005KT 280V360 9999 OVC027 20/14 Q1014 NOSIG
LFBY - Dax/Seyresse, France
Distance: NE 59 km
Mise à jour: 21-07-2017 16:30
Nuageux  
Nuageux  
   Vent: NO 5.6 km/h
Vent: NO 5.6 km/h
Température: 21°C
Point de rosée: 15°C
Humidité: 69%
Baromètre: 1013 hPa
Nuages: Nuageux
visibilité: Plus 10 km
Détails des nuages: Nuageux 3300 ft
LFBY 211430Z AUTO 32003KT 270V360 9999 // OVC033 21/15 Q1013
LEPP - Pamplona/Noain, Spain
Distance: S 64 km
Mise à jour: 21-07-2017 16:30
Partiellement nuageux  
Partiellement nuageux  
   Vent: NO 11.1 km/h
Vent: NO 11.1 km/h
Température: 27°C
Index de chaleur: 27°C
Point de rosée: 15°C
Humidité: 48%
Baromètre: 1012 hPa
Nuages: Partiellement nuageux
visibilité: Plus 10 km
Détails des nuages: Partiellement nuageux 4400 ft
LEPP 211430Z 31006KT 240V350 9999 SCT044 27/15 Q1012
LFBM - Mont-De-Marsan F, France
Distance: NE 112 km
Mise à jour: 21-07-2017 16:30
Nuageux  
Nuageux  
   Vent: NNO 13 km/h
Vent: NNO 13 km/h
Température: 21°C
Point de rosée: 14°C
Humidité: 64%
Baromètre: 1013 hPa
Nuages: Nuageux
visibilité: Plus 10 km
Détails des nuages: Nuageux 3300 ft
LFBM 211430Z AUTO 33007KT 9999 OVC033 21/14 Q1013
LFBT - Tarbes/Ossun, France
Distance: E 135 km
Mise à jour: 21-07-2017 16:30
Nuageux  
Nuageux  
   Vent: varie 5.6 km/h
Vent: varie 5.6 km/h
Température: 19°C
Point de rosée: 15°C
Humidité: 78%
Baromètre: 1014 hPa
Nuages: Nuageux
visibilité: Plus 10 km
Détails des nuages: Nuageux 2000 ft
LFBT 211430Z AUTO VRB03KT 9999 OVC020 19/15 Q1014 BECMG OVC014
LFBD - Bordeaux/Merigna, France
Distance: NNE 181 km
Mise à jour: 21-07-2017 16:30
Nuageux  
Nuageux  
   Vent: NNO 7.4 km/h
Vent: NNO 7.4 km/h
Température: 21°C
Point de rosée: 11°C
Humidité: 53%
Baromètre: 1013 hPa
Nuages: Nuageux
visibilité: Plus 10 km
Détails des nuages: Peu de nuages 4000 ft,
Nuageux 4600 ft
LFBD 211430Z AUTO 34004KT 290V010 9999 FEW040 OVC046 21/11 Q1013 NOSIG
  

Script développé par  Saratoga-weather.org Adapté pour le modèle par  Weerstation Leuven

Vous trouverez notre info météo Également à:

European Weather Network

Weather Underground

French Weather Network

AWEKAS

Citizen Weather Observer Program (CWOP)

HAMweather, WeatherForYou, PWS Weather